Time;durP1;ratioP1;P1;durP2;ratioP2;P2;SDS_P1;SDS_P2;PMS_P1;PMS_P2;Temp;Humidity;BMP_temperature;BMP_pressure;BME280_temperature;BME280_humidity;BME280_pressure;Samples;Min_cycle;Max_cycle;Signal;HPM_P1;HPM_P2
2023/09/03 00:01:11;;;;;;;;;17.40;16.60;;;;;22.41;37.61;99814.19;5090875;28;8855;-77
2023/09/03 00:03:50;;;;;;;;;20.00;19.20;;;;;22.43;37.82;99808.72;5057892;28;9013;-78
2023/09/03 00:06:18;;;;;;;;;21.60;21.40;;;;;22.41;38.40;99810.63;5091393;28;8976;-78
2023/09/03 00:08:48;;;;;;;;;19.80;19.80;;;;;22.37;38.27;99806.44;5090960;28;8852;-78
2023/09/03 00:11:17;;;;;;;;;26.50;25.50;;;;;22.36;38.65;99810.09;5089652;28;8863;-80
2023/09/03 00:13:46;;;;;;;;;23.00;21.80;;;;;22.33;38.28;99812.94;5106820;28;8824;-79
2023/09/03 00:16:15;;;;;;;;;29.75;29.75;;;;;22.29;39.51;99811.44;5071931;28;8905;-78
2023/09/03 00:18:44;;;;;;;;;31.00;29.25;;;;;22.22;39.73;99819.84;5106522;28;8843;-77
2023/09/03 00:21:14;;;;;;;;;30.75;30.00;;;;;22.18;39.88;99815.66;5090684;28;8847;-77
2023/09/03 00:23:43;;;;;;;;;28.50;28.00;;;;;22.02;39.95;99807.75;5090516;28;8843;-78
2023/09/03 00:26:17;;;;;;;;;28.25;26.25;;;;;21.47;40.97;99805.03;5091038;28;8851;-77
2023/09/03 00:28:51;;;;;;;;;23.40;22.20;;;;;20.58;42.14;99813.91;5089440;28;8852;-78
2023/09/03 00:31:21;;;;;;;;;24.40;23.60;;;;;20.21;42.22;99799.97;5089629;28;8883;-77
2023/09/03 00:33:50;;;;;;;;;21.00;21.00;;;;;20.62;41.41;99810.09;5072955;28;8843;-77
2023/09/03 00:36:20;;;;;;;;;26.00;23.50;;;;;20.72;41.58;99805.06;5090681;28;8871;-77
2023/09/03 00:38:50;;;;;;;;;26.50;26.50;;;;;20.78;41.70;99804.69;5106191;28;8860;-78
2023/09/03 00:41:19;;;;;;;;;26.40;25.60;;;;;20.84;41.77;99797.19;5089365;28;8871;-78
2023/09/03 00:43:48;;;;;;;;;29.00;28.25;;;;;20.90;41.87;99798.63;5049965;28;8843;-78
2023/09/03 00:46:17;;;;;;;;;33.00;31.25;;;;;20.94;41.85;99794.00;5123352;27;8867;-77
2023/09/03 00:48:46;;;;;;;;;25.60;24.20;;;;;20.93;41.34;99789.59;5090363;28;8840;-78
2023/09/03 00:51:15;;;;;;;;;24.00;23.40;;;;;20.88;41.14;99784.50;5100186;28;9597;-78
2023/09/03 00:53:49;;;;;;;;;20.20;19.00;;;;;20.67;41.86;99779.50;5102632;28;8844;-78
2023/09/03 00:56:18;;;;;;;;;20.20;19.20;;;;;20.42;42.38;99782.72;5060508;28;8957;-76
2023/09/03 00:58:48;;;;;;;;;24.20;24.20;;;;;20.54;42.76;99781.19;5126528;27;8857;-78
2023/09/03 01:01:18;;;;;;;;;21.80;21.60;;;;;20.61;42.54;99777.16;5110232;28;8904;-77
2023/09/03 01:03:48;;;;;;;;;15.20;14.20;;;;;20.55;41.92;99776.69;5106245;28;8908;-79
2023/09/03 01:06:16;;;;;;;;;17.40;16.80;;;;;20.50;42.56;99774.31;5089142;28;8832;-77
2023/09/03 01:08:47;;;;;;;;;18.40;16.80;;;;;20.49;42.57;99772.56;5105830;28;8852;-80
2023/09/03 01:11:28;;;;;;;;;19.00;19.00;;;;;20.55;42.45;99777.53;5088782;28;8844;-79
2023/09/03 01:14:13;;;;;;;;;19.20;18.80;;;;;20.38;42.88;99770.53;5071006;28;8906;-78
2023/09/03 01:16:52;;;;;;;;;21.00;19.80;;;;;20.34;43.20;99776.13;5105617;28;8897;-77
2023/09/03 01:19:47;;;;;;;;;20.80;19.80;;;;;20.45;43.00;99777.22;5037400;28;8903;-77
2023/09/03 01:22:26;;;;;;;;;21.60;20.40;;;;;20.42;42.89;99765.88;5088452;28;8847;-79
2023/09/03 01:25:09;;;;;;;;;22.80;22.40;;;;;20.41;43.25;99766.84;5101754;28;8886;-77
2023/09/03 01:27:58;;;;;;;;;20.40;19.40;;;;;20.34;43.22;99768.97;5105334;28;8843;-77
2023/09/03 01:30:29;;;;;;;;;20.40;20.40;;;;;20.23;43.31;99763.41;5089785;28;8852;-78
2023/09/03 01:32:59;;;;;;;;;20.00;19.40;;;;;20.03;44.34;99761.88;5128456;27;8934;-77
2023/09/03 01:35:29;;;;;;;;;19.40;19.40;;;;;20.13;43.99;99764.88;5111719;27;8860;-78
2023/09/03 01:37:59;;;;;;;;;22.00;19.80;;;;;20.26;43.84;99769.44;5128571;27;8857;-77
2023/09/03 01:40:27;;;;;;;;;20.80;19.00;;;;;20.31;43.78;99758.47;5111040;27;8857;-79
2023/09/03 01:42:56;;;;;;;;;22.80;21.40;;;;;20.43;43.20;99756.91;5130068;27;8841;-77
2023/09/03 01:45:35;;;;;;;;;15.40;15.40;;;;;20.57;42.84;99764.97;5115131;27;8829;-76
2023/09/03 01:48:13;;;;;;;;;20.20;19.20;;;;;20.61;42.25;99766.50;5156603;27;8905;-77
2023/09/03 01:50:47;;;;;;;;;20.20;19.20;;;;;20.64;41.67;99763.66;5134230;27;8853;-77
2023/09/03 01:53:25;;;;;;;;;21.20;19.40;;;;;20.68;41.92;99762.50;5151396;27;8838;-76
2023/09/03 01:55:59;;;;;;;;;18.20;17.80;;;;;20.65;42.10;99761.81;5077770;27;8841;-77
2023/09/03 01:58:31;;;;;;;;;20.80;19.80;;;;;20.54;41.98;99758.94;5144977;27;8825;-79
2023/09/03 02:01:04;;;;;;;;;17.80;17.60;;;;;20.64;42.40;99755.63;5144646;27;8967;-77
2023/09/03 02:03:33;;;;;;;;;23.00;19.60;;;;;20.61;42.16;99766.50;5085736;28;8863;-78
2023/09/03 02:06:06;;;;;;;;;20.60;20.40;;;;;20.63;42.38;99759.28;5087689;28;9702;-78
2023/09/03 02:08:35;;;;;;;;;21.00;19.60;;;;;20.64;42.37;99760.13;5088728;28;9706;-77
2023/09/03 02:11:04;;;;;;;;;23.20;22.60;;;;;20.61;42.12;99749.63;5089243;28;8868;-78
2023/09/03 02:13:32;;;;;;;;;19.80;19.80;;;;;20.68;41.90;99750.97;5087864;28;8847;-78
2023/09/03 02:16:03;;;;;;;;;24.20;23.00;;;;;20.67;41.70;99750.13;5087702;28;8855;-76
2023/09/03 02:18:32;;;;;;;;;23.00;23.00;;;;;20.61;42.27;99753.13;5087507;28;8955;-77
2023/09/03 02:21:01;;;;;;;;;24.20;20.80;;;;;20.64;41.93;99755.63;5087590;28;8864;-77
2023/09/03 02:23:30;;;;;;;;;22.20;21.60;;;;;20.63;42.32;99753.03;5086184;28;8854;-76
2023/09/03 02:26:01;;;;;;;;;24.80;24.20;;;;;20.62;42.39;99749.53;5086225;28;9614;-78
2023/09/03 02:28:30;;;;;;;;;26.60;26.00;;;;;20.65;42.44;99748.47;5086344;28;8900;-79
2023/09/03 02:30:59;;;;;;;;;27.60;26.80;;;;;20.64;42.17;99741.44;5086021;28;9595;-78
2023/09/03 02:33:30;;;;;;;;;25.00;23.60;;;;;20.62;41.82;99746.84;5086444;28;8849;-77
2023/09/03 02:35:59;;;;;;;;;27.00;26.40;;;;;20.52;42.33;99744.81;5086215;28;9607;-78
2023/09/03 02:38:28;;;;;;;;;24.00;22.20;;;;;20.51;42.31;99751.97;5045969;28;9060;-77
2023/09/03 02:40:57;;;;;;;;;31.00;28.75;;;;;20.44;42.96;99750.59;5046713;28;8877;-79
2023/09/03 02:43:25;;;;;;;;;30.00;28.40;;;;;20.41;43.36;99749.00;5057881;28;8850;-78
2023/09/03 02:45:54;;;;;;;;;27.40;23.20;;;;;20.44;42.57;99750.59;5011150;28;8846;-78
2023/09/03 02:48:23;;;;;;;;;21.80;21.80;;;;;20.44;42.20;99745.28;5059937;28;8850;-77
2023/09/03 02:50:53;;;;;;;;;24.40;24.20;;;;;20.49;42.16;99752.06;5033376;28;8842;-80
2023/09/03 02:53:22;;;;;;;;;26.80;26.20;;;;;20.52;42.70;99751.03;5048940;28;8858;-76
2023/09/03 02:55:51;;;;;;;;;26.80;25.20;;;;;20.56;42.89;99751.69;5085016;28;8882;-77
2023/09/03 02:58:20;;;;;;;;;29.40;26.80;;;;;20.56;42.90;99757.03;5062211;28;8885;-77
2023/09/03 03:00:50;;;;;;;;;23.20;23.20;;;;;20.56;42.72;99749.00;5012667;28;8854;-78
2023/09/03 03:03:19;;;;;;;;;21.60;20.60;;;;;20.53;43.29;99750.06;5062102;28;8993;-78
2023/09/03 03:05:54;;;;;;;;;25.60;25.00;;;;;20.58;42.92;99750.66;5045734;28;8839;-78
2023/09/03 03:08:23;;;;;;;;;26.60;25.60;;;;;20.52;42.99;99748.38;5012811;28;8869;-77
2023/09/03 03:10:51;;;;;;;;;21.40;19.20;;;;;20.54;42.85;99756.25;5032362;28;8863;-78
2023/09/03 03:13:21;;;;;;;;;21.40;21.40;;;;;20.56;43.18;99751.69;5049026;28;8844;-78
2023/09/03 03:15:52;;;;;;;;;27.40;25.40;;;;;20.55;43.10;99752.66;5032205;28;8835;-78
2023/09/03 03:18:21;;;;;;;;;27.25;27.00;;;;;20.56;43.51;99763.25;5048704;28;9030;-78
2023/09/03 03:20:53;;;;;;;;;25.20;24.20;;;;;20.56;44.15;99757.91;5051245;28;8895;-77
2023/09/03 03:23:23;;;;;;;;;23.00;23.00;;;;;20.56;44.26;99763.25;5053145;28;8859;-76
2023/09/03 03:25:53;;;;;;;;;25.40;25.40;;;;;20.53;43.80;99757.22;5052811;28;8859;-76
2023/09/03 03:28:23;;;;;;;;;31.50;28.50;;;;;20.52;43.35;99761.72;5053385;28;9675;-77
2023/09/03 03:30:52;;;;;;;;;27.60;26.80;;;;;20.49;43.47;99756.53;5107738;28;8956;-77
2023/09/03 03:33:20;;;;;;;;;26.00;25.80;;;;;20.47;43.33;99750.44;5106021;28;8872;-77
2023/09/03 03:35:49;;;;;;;;;26.60;24.80;;;;;20.47;43.33;99755.78;5110627;28;8967;-77
2023/09/03 03:38:20;;;;;;;;;27.20;25.00;;;;;20.48;43.58;99747.69;5113715;28;8868;-77
2023/09/03 03:40:51;;;;;;;;;24.80;22.80;;;;;20.47;43.45;99743.28;5122879;28;8841;-76
2023/09/03 03:43:19;;;;;;;;;25.20;24.80;;;;;20.46;43.65;99746.03;5118974;28;9693;-76
2023/09/03 03:45:48;;;;;;;;;23.80;23.60;;;;;20.45;44.18;99745.19;5094029;28;8865;-77
2023/09/03 03:48:18;;;;;;;;;21.00;21.00;;;;;20.48;43.97;99744.13;5111051;27;8825;-77
2023/09/03 03:50:48;;;;;;;;;26.20;25.40;;;;;20.49;43.65;99748.53;5093328;28;8837;-78
2023/09/03 03:53:16;;;;;;;;;32.40;30.20;;;;;20.49;43.95;99753.88;5110379;28;10052;-78
2023/09/03 03:55:45;;;;;;;;;27.40;27.00;;;;;20.51;44.17;99753.78;5111805;28;8849;-77
2023/09/03 03:58:15;;;;;;;;;25.40;24.60;;;;;20.48;44.41;99747.69;5110513;28;8833;-77
2023/09/03 04:00:44;;;;;;;;;28.00;25.75;;;;;20.47;43.93;99748.63;5092310;28;8856;-78
2023/09/03 04:03:13;;;;;;;;;29.00;25.40;;;;;20.44;44.21;99746.16;5093389;28;8861;-77
2023/09/03 04:05:42;;;;;;;;;29.20;28.00;;;;;20.43;44.04;99749.75;5098762;28;9431;-76
2023/09/03 04:08:11;;;;;;;;;29.60;28.00;;;;;20.40;43.75;99746.41;5107880;28;8844;-76
2023/09/03 04:10:40;;;;;;;;;25.80;25.40;;;;;20.40;43.58;99749.94;5090065;28;8957;-77
2023/09/03 04:13:08;;;;;;;;;27.20;25.20;;;;;20.45;43.32;99755.00;5106837;28;8844;-77
2023/09/03 04:15:39;;;;;;;;;26.40;26.40;;;;;20.48;43.71;99763.72;5090185;28;8847;-78
2023/09/03 04:18:08;;;;;;;;;27.00;25.60;;;;;20.47;43.50;99769.13;5089798;28;8960;-77
2023/09/03 04:20:37;;;;;;;;;26.00;26.00;;;;;20.49;43.60;99769.91;5071282;28;8873;-79
2023/09/03 04:23:06;;;;;;;;;29.00;28.75;;;;;20.56;44.19;99765.03;5088372;28;8846;-79
2023/09/03 04:25:35;;;;;;;;;29.60;27.80;;;;;20.59;44.37;99770.22;5071502;28;8880;-77
2023/09/03 04:28:06;;;;;;;;;29.00;26.80;;;;;20.63;44.43;99767.28;5071735;28;8861;-78
2023/09/03 04:30:37;;;;;;;;;26.75;26.75;;;;;20.68;43.40;99772.34;5022123;28;8858;-78
2023/09/03 04:33:08;;;;;;;;;29.50;27.25;;;;;20.67;43.56;99774.16;5055245;28;8842;-80
2023/09/03 04:35:39;;;;;;;;;27.80;26.60;;;;;20.62;43.23;99772.72;5082260;28;8866;-77
2023/09/03 04:38:09;;;;;;;;;25.00;23.60;;;;;20.49;42.85;99764.56;5084351;28;8915;-76
2023/09/03 04:40:38;;;;;;;;;28.20;26.60;;;;;20.44;43.71;99774.63;5058065;28;8862;-78
2023/09/03 04:43:07;;;;;;;;;27.20;25.40;;;;;20.35;43.42;99777.84;5071881;28;8841;-77
2023/09/03 04:45:37;;;;;;;;;27.00;23.80;;;;;20.44;43.89;99779.97;5071487;28;8865;-77
2023/09/03 04:48:08;;;;;;;;;27.80;27.80;;;;;20.69;44.38;99782.09;5005652;28;8880;-76
2023/09/03 04:50:37;;;;;;;;;31.00;29.80;;;;;20.84;44.50;99778.50;5070780;28;8850;-78
2023/09/03 04:53:07;;;;;;;;;25.20;25.20;;;;;20.96;43.90;99782.25;5092531;28;8869;-80
2023/09/03 04:55:37;;;;;;;;;27.50;27.00;;;;;21.08;43.47;99788.66;5109416;28;8877;-78
2023/09/03 04:58:06;;;;;;;;;26.20;26.20;;;;;21.19;43.31;99785.34;5109433;28;8892;-78
2023/09/03 05:00:36;;;;;;;;;25.60;25.60;;;;;21.26;43.63;99792.88;5107112;28;9020;-77
2023/09/03 05:03:09;;;;;;;;;25.25;25.25;;;;;21.38;43.67;99793.94;5071767;28;8956;-77
2023/09/03 05:05:41;;;;;;;;;30.00;27.75;;;;;21.45;43.29;99795.28;5073151;28;9623;-77
2023/09/03 05:08:12;;;;;;;;;34.75;32.25;;;;;21.53;43.09;99791.28;5088991;28;8928;-79
2023/09/03 05:10:44;;;;;;;;;33.00;30.00;;;;;21.60;42.67;99787.28;5088613;28;8832;-76
2023/09/03 05:13:13;;;;;;;;;25.25;25.25;;;;;21.67;42.37;99796.63;5089599;28;8840;-77
2023/09/03 05:15:42;;;;;;;;;30.75;29.00;;;;;21.73;42.58;99784.66;5090066;28;8854;-78
2023/09/03 05:18:12;;;;;;;;;26.00;26.00;;;;;21.83;42.39;99788.50;5105574;28;8871;-78
2023/09/03 05:20:41;;;;;;;;;25.40;24.60;;;;;21.91;42.35;99788.84;5070424;28;8963;-76
2023/09/03 05:23:10;;;;;;;;;26.00;25.40;;;;;21.97;42.25;99785.75;5089623;28;8836;-78
2023/09/03 05:25:39;;;;;;;;;25.00;23.50;;;;;22.09;41.70;99784.13;5071446;28;9086;-78
2023/09/03 05:28:08;;;;;;;;;31.00;30.25;;;;;21.88;40.29;99796.22;5088204;28;8953;-79
2023/09/03 05:30:37;;;;;;;;;34.50;31.75;;;;;21.78;40.83;99795.94;5058424;28;8882;-77
2023/09/03 05:33:06;;;;;;;;;31.25;29.75;;;;;21.63;40.93;99800.44;5101568;28;8912;-77
2023/09/03 05:35:37;;;;;;;;;27.25;26.00;;;;;21.67;40.55;99793.94;5098406;28;8870;-79
2023/09/03 05:38:07;;;;;;;;;28.25;28.00;;;;;21.64;40.30;99802.19;5089753;28;9011;-78
2023/09/03 05:40:36;;;;;;;;;31.00;30.25;;;;;21.52;41.60;99801.13;5088692;28;8827;-77
2023/09/03 05:43:05;;;;;;;;;29.75;29.25;;;;;21.44;40.59;99801.56;5087768;28;8855;-78
2023/09/03 05:45:35;;;;;;;;;32.25;30.25;;;;;21.41;40.81;99804.44;5088298;28;8870;-78
2023/09/03 05:48:04;;;;;;;;;34.75;32.25;;;;;21.64;40.16;99794.16;5087019;28;8855;-78
2023/09/03 05:50:33;;;;;;;;;33.50;30.50;;;;;21.84;38.99;99800.91;5070315;28;8863;-78
2023/09/03 05:53:04;;;;;;;;;29.75;29.50;;;;;22.00;38.86;99808.81;5054517;28;8994;-79
2023/09/03 05:55:37;;;;;;;;;31.00;30.25;;;;;22.14;38.37;99815.94;5088126;28;8855;-76
2023/09/03 05:58:06;;;;;;;;;50.75;42.50;;;;;22.14;38.33;99808.75;5105230;28;8843;-79
2023/09/03 06:00:41;;;;;;;;;59.33;48.67;;;;;22.25;38.00;99816.13;5104820;28;9592;-76
2023/09/03 06:03:12;;;;;;;;;47.50;39.50;;;;;22.22;38.00;99818.97;5087478;28;9741;-78
2023/09/03 06:05:42;;;;;;;;;37.25;34.00;;;;;22.19;37.90;99813.84;5070629;28;8840;-78
2023/09/03 06:08:12;;;;;;;;;37.25;33.75;;;;;22.30;37.94;99811.34;5089129;28;8871;-77
2023/09/03 06:10:42;;;;;;;;;33.25;30.25;;;;;22.32;37.46;99805.91;5069849;28;8928;-77
2023/09/03 06:13:11;;;;;;;;;30.75;30.25;;;;;22.30;37.20;99803.31;5087464;28;8856;-78
2023/09/03 06:15:40;;;;;;;;;34.00;31.50;;;;;22.34;37.24;99810.19;5088699;28;8867;-77
2023/09/03 06:18:09;;;;;;;;;31.50;31.00;;;;;22.49;37.21;99805.63;5087928;28;8932;-78
2023/09/03 06:20:38;;;;;;;;;41.00;35.75;;;;;22.56;36.70;99803.38;5088585;28;9696;-78
2023/09/03 06:23:06;;;;;;;;;31.75;31.00;;;;;22.63;36.99;99803.84;5087238;28;8855;-78
2023/09/03 06:25:38;;;;;;;;;24.50;22.50;;;;;22.88;36.42;99803.88;5070674;28;8878;-77
2023/09/03 06:28:06;;;;;;;;;30.75;26.75;;;;;23.12;36.71;99805.88;5057585;28;8947;-77
2023/09/03 06:30:35;;;;;;;;;30.25;28.50;;;;;23.22;35.59;99814.97;5091204;28;8839;-77
2023/09/03 06:33:05;;;;;;;;;32.00;30.25;;;;;23.35;36.02;99818.53;5090576;28;8847;-79
2023/09/03 06:35:34;;;;;;;;;30.75;29.75;;;;;23.50;35.90;99821.09;5089630;28;8944;-78
2023/09/03 06:38:03;;;;;;;;;98.50;91.00;;;;;23.63;35.54;99811.25;5088560;28;8868;-77
2023/09/03 06:40:32;;;;;;;;;70.50;61.00;;;;;23.86;35.51;99806.88;5088376;28;11615;-76
2023/09/03 06:43:02;;;;;;;;;36.00;32.00;;;;;23.89;35.46;99805.84;5088119;28;9775;-78
2023/09/03 06:45:32;;;;;;;;;34.25;31.75;;;;;23.99;35.39;99809.53;5087013;28;8836;-79
2023/09/03 06:48:01;;;;;;;;;31.00;29.75;;;;;23.95;35.25;99821.50;5088321;28;8866;-75
2023/09/03 06:50:30;;;;;;;;;30.50;29.75;;;;;23.90;35.44;99815.59;5088450;28;8904;-78
2023/09/03 06:52:59;;;;;;;;;31.25;29.75;;;;;23.98;35.58;99818.59;5088050;28;9001;-77
2023/09/03 06:55:28;;;;;;;;;29.25;28.75;;;;;23.98;35.24;99815.91;5091194;28;8873;-77
2023/09/03 06:57:57;;;;;;;;;31.00;29.00;;;;;24.05;35.57;99816.28;5091398;28;8827;-77
2023/09/03 07:00:27;;;;;;;;;30.75;30.00;;;;;24.25;35.54;99814.88;5092895;28;9675;-75
2023/09/03 07:02:56;;;;;;;;;32.00;30.00;;;;;24.32;35.19;99816.09;5093171;28;8867;-79
2023/09/03 07:05:25;;;;;;;;;28.75;28.75;;;;;24.50;34.88;99817.44;5107804;28;8839;-77
2023/09/03 07:07:53;;;;;;;;;29.00;27.25;;;;;24.69;35.14;99822.28;5092235;28;8870;-77
2023/09/03 07:10:22;;;;;;;;;30.75;29.25;;;;;24.96;34.95;99831.06;5073127;28;8851;-78
2023/09/03 07:12:51;;;;;;;;;32.25;30.00;;;;;25.09;34.09;99824.59;5092430;28;8986;-77
2023/09/03 07:15:20;;;;;;;;;33.50;31.25;;;;;25.18;33.52;99828.44;5092011;28;8874;-78
2023/09/03 07:17:50;;;;;;;;;25.25;25.25;;;;;25.35;33.85;99835.22;5107750;28;8855;-76
2023/09/03 07:20:19;;;;;;;;;29.75;28.25;;;;;25.49;33.38;99835.00;5092085;28;8933;-77
2023/09/03 07:22:48;;;;;;;;;35.25;32.25;;;;;25.64;33.83;99841.00;5093321;28;8883;-78
2023/09/03 07:25:17;;;;;;;;;52.00;43.75;;;;;25.85;33.36;99837.53;5118464;28;8855;-78
2023/09/03 07:27:46;;;;;;;;;42.50;37.25;;;;;25.98;33.04;99832.91;5100477;28;8868;-78
2023/09/03 07:30:15;;;;;;;;;34.75;30.50;;;;;25.90;32.87;99840.75;5093479;28;8848;-79
2023/09/03 07:32:44;;;;;;;;;33.25;31.50;;;;;26.06;33.02;99832.31;5072918;28;8844;-78
2023/09/03 07:35:14;;;;;;;;;33.50;31.00;;;;;26.13;33.10;99830.78;5091860;28;8866;-78
2023/09/03 07:37:44;;;;;;;;;33.75;31.75;;;;;26.31;32.61;99831.13;5048989;28;8896;-77
2023/09/03 07:40:13;;;;;;;;;30.50;29.75;;;;;26.53;32.67;99835.63;5048733;28;8931;-77
2023/09/03 07:42:42;;;;;;;;;24.75;24.50;;;;;26.54;31.80;99833.78;5048660;28;8955;-78
2023/09/03 07:45:11;;;;;;;;;24.25;24.25;;;;;26.03;31.96;99833.38;5048700;28;8874;-78
2023/09/03 07:47:40;;;;;;;;;24.25;24.25;;;;;25.02;33.31;99835.97;5048579;28;8846;-78
2023/09/03 07:50:10;;;;;;;;;28.25;28.25;;;;;24.71;34.56;99836.44;5015605;28;8946;-76
2023/09/03 07:52:40;;;;;;;;;23.75;23.00;;;;;25.06;34.46;99826.72;5016014;28;8903;-78
2023/09/03 07:55:09;;;;;;;;;30.25;28.25;;;;;25.04;34.84;99820.56;5048541;28;8888;-77
2023/09/03 07:57:38;;;;;;;;;26.75;24.75;;;;;25.52;34.19;99826.66;5051893;28;8894;-77
2023/09/03 08:00:08;;;;;;;;;28.50;28.50;;;;;25.94;33.79;99817.13;5068269;28;9026;-79
2023/09/03 08:02:40;;;;;;;;;29.50;29.50;;;;;25.40;34.95;99821.41;5052247;28;9669;-78
2023/09/03 08:05:11;;;;;;;;;63.00;50.67;;;;;25.49;34.79;99817.97;5050857;28;8890;-78
2023/09/03 08:07:42;;;;;;;;;27.50;27.50;;;;;25.40;34.75;99824.97;5035317;28;9440;-78
2023/09/03 08:10:10;;;;;;;;;30.25;28.50;;;;;24.99;35.67;99826.31;5073273;28;8856;-78
2023/09/03 08:12:39;;;;;;;;;29.50;27.75;;;;;25.28;35.67;99823.19;5090930;28;8851;-78
2023/09/03 08:15:09;;;;;;;;;27.25;27.25;;;;;24.43;36.84;99818.00;5091512;28;8940;-76
2023/09/03 08:17:38;;;;;;;;;28.00;26.75;;;;;24.38;36.96;99823.72;5072438;28;8941;-80
2023/09/03 08:20:08;;;;;;;;;29.25;29.00;;;;;24.99;36.61;99817.41;5096592;28;10000;-75
2023/09/03 08:22:37;;;;;;;;;31.00;29.75;;;;;25.23;35.80;99812.78;5083972;28;8836;-77
2023/09/03 08:25:08;;;;;;;;;30.00;28.75;;;;;25.21;36.10;99811.19;5095216;28;8898;-77
2023/09/03 08:27:38;;;;;;;;;34.00;32.00;;;;;24.64;36.07;99813.72;5107315;28;8839;-77
2023/09/03 08:30:09;;;;;;;;;38.75;34.00;;;;;24.53;36.73;99814.53;5090897;28;8844;-78
2023/09/03 08:32:38;;;;;;;;;40.25;35.25;;;;;25.16;35.93;99808.88;5055836;28;8828;-77
2023/09/03 08:35:08;;;;;;;;;35.50;32.25;;;;;25.01;36.50;99818.13;5071739;28;8906;-78
2023/09/03 08:37:37;;;;;;;;;31.25;30.00;;;;;25.50;35.38;99808.94;5090534;28;9686;-79
2023/09/03 08:40:09;;;;;;;;;29.75;29.25;;;;;25.86;34.94;99812.34;5072292;28;8847;-80
2023/09/03 08:42:40;;;;;;;;;31.25;30.00;;;;;25.48;35.52;99809.03;5022180;28;8820;-78
2023/09/03 08:45:12;;;;;;;;;30.50;29.25;;;;;25.64;34.72;99805.13;5089410;28;8852;-78
2023/09/03 08:47:44;;;;;;;;;32.00;30.50;;;;;25.81;34.85;99814.53;5072653;28;8917;-79
2023/09/03 08:50:14;;;;;;;;;30.00;28.50;;;;;26.31;34.14;99801.50;5093127;28;8863;-78
2023/09/03 08:52:44;;;;;;;;;33.75;32.00;;;;;24.97;35.70;99809.44;5090364;28;8832;-77
2023/09/03 08:55:14;;;;;;;;;36.25;32.75;;;;;24.70;36.39;99817.78;5074686;28;8845;-77
2023/09/03 08:57:44;;;;;;;;;28.50;28.50;;;;;25.47;35.00;99812.72;5098390;28;9108;-78
2023/09/03 09:00:14;;;;;;;;;31.00;28.75;;;;;25.43;34.34;99822.00;5088918;28;8867;-79
2023/09/03 09:02:43;;;;;;;;;28.50;27.50;;;;;25.83;33.98;99812.56;5089809;28;8848;-77
2023/09/03 09:05:14;;;;;;;;;30.25;29.25;;;;;25.68;33.36;99814.66;5089988;28;8936;-77
2023/09/03 09:07:43;;;;;;;;;27.75;27.75;;;;;25.77;33.12;99816.63;5090391;28;8855;-75
2023/09/03 09:10:18;;;;;;;;;33.25;31.50;;;;;25.60;33.40;99826.03;5090235;28;8871;-77
2023/09/03 09:12:52;;;;;;;;;31.75;29.75;;;;;25.69;33.79;99819.06;5107544;28;8942;-78
2023/09/03 09:15:21;;;;;;;;;28.50;28.25;;;;;25.86;33.87;99820.41;5110352;28;8893;-78
2023/09/03 09:17:50;;;;;;;;;25.75;24.50;;;;;25.96;33.72;99820.56;5101063;28;8990;-77
2023/09/03 09:20:19;;;;;;;;;26.75;26.75;;;;;25.58;35.11;99822.63;5064682;28;8955;-78
2023/09/03 09:22:49;;;;;;;;;26.75;26.75;;;;;25.10;36.42;99817.41;5108599;28;8870;-78
2023/09/03 09:25:21;;;;;;;;;35.00;32.75;;;;;24.89;36.69;99831.53;5107939;28;8852;-79
2023/09/03 09:27:53;;;;;;;;;30.75;30.00;;;;;24.19;37.29;99829.63;5057224;28;8836;-79
2023/09/03 09:30:24;;;;;;;;;45.50;38.75;;;;;24.61;36.62;99831.91;5090303;28;8844;-79
2023/09/03 09:33:03;;;;;;;;;32.25;31.00;;;;;24.80;36.18;99829.56;5106969;28;8976;-77
2023/09/03 09:35:32;;;;;;;;;19.80;18.80;;;;;24.08;35.24;99827.69;5073823;28;8856;-77
2023/09/03 09:38:05;;;;;;;;;27.50;26.00;;;;;23.75;37.01;99833.66;5056656;28;8832;-79
2023/09/03 09:40:36;;;;;;;;;22.80;22.80;;;;;24.13;36.10;99830.94;5090186;28;8844;-77
2023/09/03 09:43:08;;;;;;;;;25.75;24.75;;;;;24.00;35.04;99827.38;5088012;28;8862;-78
2023/09/03 09:45:46;;;;;;;;;33.25;31.50;;;;;23.75;35.36;99829.16;5089415;28;8867;-84
2023/09/03 09:48:15;;;;;;;;;28.50;27.00;;;;;23.64;35.38;99829.06;5088096;28;8930;-78
2023/09/03 09:50:44;;;;;;;;;28.75;28.75;;;;;23.50;35.27;99827.31;5053393;28;8847;-81
2023/09/03 09:53:21;;;;;;;;;32.00;30.75;;;;;23.69;34.56;99829.59;5089141;28;8862;-79
2023/09/03 09:56:01;;;;;;;;;28.50;25.25;;;;;23.57;34.97;99831.31;5087944;28;8847;-77
2023/09/03 09:58:37;;;;;;;;;31.50;30.50;;;;;23.89;34.70;99813.88;5088755;28;8836;-80
2023/09/03 10:01:06;;;;;;;;;31.75;30.75;;;;;24.52;33.89;99810.09;5088958;28;8970;-77
2023/09/03 10:03:43;;;;;;;;;33.75;30.25;;;;;25.10;33.79;99803.97;5087306;28;8894;-78
2023/09/03 10:06:14;;;;;;;;;30.50;29.25;;;;;25.46;32.94;99813.69;5070971;28;8961;-78
2023/09/03 10:08:44;;;;;;;;;29.75;29.50;;;;;25.77;32.26;99813.06;5089586;28;8847;-78
2023/09/03 10:11:19;;;;;;;;;27.25;26.50;;;;;25.64;31.64;99808.69;5090635;28;8954;-77
2023/09/03 10:13:49;;;;;;;;;28.00;26.33;;;;;26.05;32.15;99801.78;5101794;28;8863;-77
2023/09/03 10:16:20;;;;;;;;;29.75;26.75;;;;;26.36;31.54;99793.88;5102143;28;8929;-77
2023/09/03 10:18:50;;;;;;;;;58.25;48.00;;;;;26.59;30.74;99796.50;5088491;28;8843;-77
2023/09/03 10:21:22;;;;;;;;;28.50;27.50;;;;;26.70;31.00;99796.44;5088690;28;9034;-78
2023/09/03 10:24:14;;;;;;;;;29.75;29.50;;;;;27.02;30.72;99793.75;5088709;28;8906;-78
2023/09/03 10:26:48;;;;;;;;;28.50;26.50;;;;;26.64;30.74;99796.97;5086900;28;8871;-76
2023/09/03 10:29:21;;;;;;;;;30.50;30.00;;;;;26.51;30.17;99790.91;5069927;28;8863;-77
2023/09/03 10:31:51;;;;;;;;;25.75;24.50;;;;;26.46;29.74;99781.38;5065270;28;8859;-78
2023/09/03 10:34:21;;;;;;;;;25.50;25.00;;;;;26.12;30.65;99775.22;5065383;28;8855;-77
2023/09/03 10:37:06;;;;;;;;;23.50;22.75;;;;;26.12;30.67;99783.31;5032233;28;9834;-81
2023/09/03 10:39:37;;;;;;;;;22.25;22.25;;;;;26.07;30.50;99770.19;5066337;28;9619;-79
2023/09/03 10:42:30;;;;;;;;;18.80;18.60;;;;;26.83;29.33;99764.75;5049704;28;8921;-82
2023/09/03 10:45:00;;;;;;;;;23.00;22.25;;;;;27.13;29.17;99762.25;5065884;28;8864;-78
2023/09/03 10:47:29;;;;;;;;;15.20;14.20;;;;;27.35;26.92;99755.84;5006040;28;8856;-80
2023/09/03 10:49:58;;;;;;;;;13.60;13.60;;;;;27.60;26.47;99752.69;4973934;28;8836;-78
2023/09/03 10:52:40;;;;;;;;;17.00;15.80;;;;;27.14;27.07;99756.72;5006148;28;9456;-78
2023/09/03 10:55:11;;;;;;;;;16.20;15.00;;;;;27.59;26.78;99752.81;5006119;28;8855;-77
2023/09/03 10:57:42;;;;;;;;;16.00;16.00;;;;;27.83;26.85;99747.03;4974164;28;8879;-78
2023/09/03 11:00:24;;;;;;;;;17.60;16.40;;;;;28.19;26.33;99742.00;4989627;28;8855;-78
2023/09/03 11:03:16;;;;;;;;;19.40;18.60;;;;;28.53;26.49;99733.47;5023466;28;8882;-80
2023/09/03 11:06:15;;;;;;;;;14.40;14.40;;;;;28.86;26.41;99717.75;5045628;28;8981;-80
2023/09/03 11:08:45;;;;;;;;;21.20;18.40;;;;;28.92;25.79;99726.16;5046889;28;8844;-78
2023/09/03 11:11:23;;;;;;;;;18.60;18.60;;;;;29.29;24.98;99719.06;5053533;28;8828;-77
2023/09/03 11:13:54;;;;;;;;;19.50;19.50;;;;;29.31;25.38;99723.34;5046527;28;9621;-77
2023/09/03 11:16:28;;;;;;;;;20.25;19.50;;;;;29.32;24.84;99721.47;5012840;28;8851;-78
2023/09/03 11:18:57;;;;;;;;;14.40;12.60;;;;;29.24;25.09;99721.38;5062412;28;9600;-77
2023/09/03 11:21:27;;;;;;;;;18.00;18.00;;;;;29.50;25.37;99722.41;5088350;28;8890;-79
2023/09/03 11:24:01;;;;;;;;;16.50;16.50;;;;;29.79;24.66;99715.97;5069120;28;8840;-78
2023/09/03 11:26:30;;;;;;;;;17.20;17.20;;;;;30.06;24.65;99722.34;5102965;28;8960;-77
2023/09/03 11:29:01;;;;;;;;;16.60;16.60;;;;;30.23;24.13;99716.09;5087812;28;9028;-77
2023/09/03 11:31:31;;;;;;;;;31.50;29.50;;;;;29.93;24.26;99712.72;5036459;28;9601;-76
2023/09/03 11:34:00;;;;;;;;;18.50;17.50;;;;;29.84;24.07;99715.50;5087912;28;8944;-78
2023/09/03 11:36:29;;;;;;;;;18.60;17.60;;;;;30.20;23.85;99711.00;5087687;28;8936;-78
2023/09/03 11:38:59;;;;;;;;;20.50;18.50;;;;;30.48;23.70;99705.44;5087679;28;8859;-78
2023/09/03 11:41:30;;;;;;;;;17.75;17.75;;;;;30.77;23.15;99707.91;5090453;28;8863;-78